KGEU

Glendale Municipal Airport

Glendale, Arizona, USA
METAR KGEU 191452Z COR 00000KT 10SM FEW200 07/00 A3005
Observed Flight Rules
Jan-19 @ 14:52 UTC (33 minutes ago) Visual Flight Rules
Wind Visibility Clouds
Calm 10 miles
  • Few at 20,000' AGL
Temperatures Readings
Current 7°C / 45°F
Dewpoint 0°C / 32°F
Humidity 61%
Altimeter 30.05" Hg
Pressure 1018 hPa
Elevation 325
METAR KGEU 191452Z COR 00000KT 10SM FEW200 07/00 A3005
Observed Flight Rules
Jan-19 @ 14:52 UTC
(33 minutes ago)
VFR
Wind Visibility
Calm 10 miles
Clouds
  • Few at 20,000' AGL
Temperature Dewpoint
7°C / 45°F 0°C / 32°F
Humidity Altimeter Pressure
61% 30.05" Hg 1018 hPa